Terminal Aerodrome Forecast
Issued by NWS

Home | Current Version | Previous Version | Text Only | Print | Product List | Glossary On
Versions: 1 2 3 4 5 6 7 8 9 10 11 12 13 14 15 16 17 18 19 20 21 22 23 24 25 26
000
FTUS42 KJAX 202356
TAFCRG
TAF
KCRG 202356Z 2100/2124 13005KT P6SM FEW025 SCT120 BKN200
     FM211100 11008KT P6SM VCSH SCT025 BKN100 OVC200 PROB30
      2111/2115 3SM +SHRA BR SCT015 BKN025 OVC070
     FM211600 10011KT P6SM VCSH SCT025 BKN100 BKN200=

USA.gov is the U.S. government's official web portal to all federal, state and local government web resources and services.